createdAt,value
2018-12-21T00:05:14.056Z,6.627808
2018-12-21T00:10:36.679Z,6.476746
2018-12-21T00:15:59.612Z,6.386108
2018-12-21T00:21:22.373Z,6.315613
2018-12-21T00:26:45.059Z,6.265259
2018-12-21T00:32:07.751Z,6.245117
2018-12-21T00:37:30.498Z,6.194763
2018-12-21T00:42:53.295Z,6.204834
2018-12-21T00:48:15.957Z,6.194763
2018-12-21T00:53:48.450Z,6.214905
2018-12-21T00:59:11.429Z,6.27533
2018-12-21T01:04:34.152Z,6.708374
2018-12-21T01:09:56.868Z,6.627808
2018-12-21T01:15:19.733Z,6.53717
2018-12-21T01:20:42.456Z,6.53717
2018-12-21T01:26:05.292Z,6.5271
2018-12-21T01:31:28.094Z,6.506958
2018-12-21T01:36:50.913Z,6.5271
2018-12-21T01:42:14.698Z,6.506958
2018-12-21T01:47:38.222Z,6.5271
2018-12-21T01:53:01.000Z,6.506958
2018-12-21T01:58:33.580Z,6.5271
2018-12-21T02:03:56.932Z,6.496887
2018-12-21T02:09:19.557Z,6.456604
2018-12-21T02:14:42.268Z,6.456604
2018-12-21T02:20:04.974Z,6.496887
2018-12-21T02:25:27.637Z,6.426392
2018-12-21T02:30:50.396Z,6.396179
2018-12-21T02:36:13.337Z,6.376038
2018-12-21T02:41:36.955Z,6.325684
2018-12-21T02:46:59.695Z,6.295471
2018-12-21T02:52:23.558Z,6.325684
2018-12-21T02:57:46.887Z,6.315613
2018-12-21T03:03:10.515Z,6.345825
2018-12-21T03:08:33.180Z,6.426392
2018-12-21T03:13:55.909Z,6.386108
2018-12-21T03:19:19.747Z,6.386108
2018-12-21T03:24:43.071Z,6.386108
2018-12-21T03:30:15.475Z,6.376038
2018-12-21T03:35:38.447Z,6.315613
2018-12-21T03:41:01.161Z,6.27533
2018-12-21T03:46:23.831Z,6.245117
2018-12-21T03:51:46.464Z,6.235046
2018-12-21T03:57:09.114Z,6.235046
2018-12-21T04:02:31.799Z,6.214905
2018-12-21T04:07:54.442Z,6.265259
2018-12-21T04:13:17.133Z,6.204834
2018-12-21T04:18:39.819Z,6.164551
2018-12-21T04:24:03.039Z,6.083984
2018-12-21T04:29:26.310Z,5.993347
2018-12-21T04:34:49.097Z,5.932922
2018-12-21T04:40:11.731Z,5.932922
2018-12-21T04:45:34.658Z,5.953064
2018-12-21T04:50:57.928Z,5.963135
2018-12-21T04:56:20.891Z,5.953064
2018-12-21T05:01:45.420Z,5.983276
2018-12-21T05:07:12.459Z,6.083984
2018-12-21T05:12:32.733Z,6.104126
2018-12-21T05:17:55.760Z,6.134338
2018-12-21T05:23:18.430Z,6.204834
2018-12-21T05:28:42.292Z,6.265259
2018-12-21T05:34:05.037Z,6.355896
2018-12-21T05:39:28.725Z,6.355896
2018-12-21T05:44:51.533Z,6.416321
2018-12-21T05:50:14.276Z,6.426392
2018-12-21T05:55:37.114Z,6.416321
2018-12-21T06:00:59.927Z,6.476746
2018-12-21T06:06:22.646Z,6.496887
2018-12-21T06:11:46.328Z,6.496887
2018-12-21T06:17:09.000Z,6.53717
2018-12-21T06:22:31.743Z,6.637878
2018-12-21T06:27:54.444Z,6.627808
2018-12-21T06:33:17.439Z,6.678162
2018-12-21T06:38:40.346Z,6.688232
2018-12-21T06:44:03.385Z,6.647949
2018-12-21T06:49:26.473Z,6.678162
2018-12-21T06:54:49.552Z,6.647949
2018-12-21T07:00:12.433Z,6.688232
2018-12-21T07:05:35.120Z,6.678162
2018-12-21T07:10:57.933Z,6.678162
2018-12-21T07:16:20.562Z,6.627808
2018-12-21T07:21:43.341Z,6.577454
2018-12-21T07:27:06.064Z,6.567383
2018-12-21T07:32:28.822Z,6.547241
2018-12-21T07:37:51.633Z,6.627808
2018-12-21T07:43:14.309Z,6.637878
2018-12-21T07:48:37.102Z,6.688232
2018-12-21T07:53:59.972Z,6.758728
2018-12-21T07:59:31.520Z,6.809082
2018-12-21T08:04:54.375Z,6.859436
2018-12-21T08:10:17.136Z,6.90979
2018-12-21T08:21:45.662Z,6.970215
2018-12-21T08:27:08.843Z,6.990356
2018-12-21T08:32:40.864Z,7.010498
2018-12-21T08:38:14.710Z,7.010498
2018-12-21T08:43:46.749Z,7.000427
2018-12-21T08:49:19.589Z,7.000427
2018-12-21T08:54:52.311Z,6.990356
2018-12-21T09:00:23.757Z,7.010498
2018-12-21T09:05:56.866Z,7.010498
2018-12-21T09:11:31.416Z,7.010498
2018-12-21T09:17:04.664Z,7.050781
2018-12-21T09:29:03.208Z,7.091064
2018-12-21T09:34:27.186Z,7.121277
2018-12-21T09:39:53.440Z,7.16156
2018-12-21T09:58:16.183Z,7.362976
2018-12-21T10:03:51.069Z,7.362976
2018-12-21T10:09:14.265Z,7.41333
2018-12-21T10:14:46.949Z,7.473755
2018-12-21T10:32:09.226Z,7.725525
2018-12-21T10:37:45.562Z,7.846375
2018-12-21T10:43:18.980Z,7.937012
2018-12-21T10:48:51.991Z,8.017578
2018-12-21T10:54:26.863Z,8.098145
2018-12-21T10:59:57.597Z,8.178711
2018-12-21T11:05:31.267Z,8.249207
2018-12-21T11:11:11.422Z,8.309631
2018-12-21T11:16:48.247Z,8.339844
2018-12-21T11:22:52.066Z,8.390198
2018-12-21T11:28:40.951Z,8.470764
2018-12-21T11:34:18.221Z,8.551331
2018-12-21T11:39:51.033Z,8.641968
2018-12-21T11:45:26.803Z,8.732605
2018-12-21T11:50:59.955Z,8.762817
2018-12-21T11:56:36.499Z,8.853455
2018-12-21T12:02:19.171Z,8.974304
2018-12-21T12:13:42.157Z,9.256287
2018-12-21T12:19:16.205Z,9.377136
2018-12-21T12:24:39.704Z,9.54834
2018-12-21T12:35:55.642Z,9.981384
2018-12-21T12:47:30.800Z,10.223083
2018-12-21T12:53:04.930Z,10.323792
2018-12-21T12:58:37.267Z,10.4245
2018-12-21T13:04:10.215Z,10.515137
2018-12-21T13:09:44.835Z,10.565491
2018-12-21T13:15:07.574Z,10.68634
2018-12-21T13:20:30.560Z,10.756836
2018-12-21T13:38:17.823Z,10.988464
2018-12-21T13:43:50.926Z,11.05896
2018-12-21T13:49:23.332Z,11.129456
2018-12-21T13:54:56.733Z,11.230164
2018-12-21T14:00:30.599Z,11.351013
2018-12-21T14:12:03.251Z,11.542358
2018-12-21T14:17:40.313Z,11.572571
2018-12-21T14:23:15.764Z,11.602783
2018-12-21T14:35:13.914Z,11.461792
2018-12-21T14:40:45.993Z,11.542358
2018-12-21T14:46:18.931Z,11.703491
2018-12-21T14:51:51.319Z,11.673279
2018-12-21T14:57:14.271Z,11.663208
2018-12-21T15:02:46.990Z,11.723633
2018-12-21T15:08:19.076Z,11.794128
2018-12-21T15:13:42.261Z,11.723633
2018-12-21T15:19:05.056Z,11.632996
2018-12-21T15:24:28.045Z,11.592712
2018-12-21T15:29:50.752Z,11.542358
2018-12-21T15:35:23.672Z,11.381226
2018-12-21T15:40:56.993Z,11.300659
2018-12-21T15:46:30.578Z,11.300659
2018-12-21T15:51:53.617Z,11.421509
2018-12-21T15:57:26.060Z,11.18988
2018-12-21T16:02:59.596Z,11.119385
2018-12-21T16:08:32.757Z,11.109314
2018-12-21T16:20:10.173Z,11.008606
2018-12-21T16:31:42.005Z,10.646057
2018-12-21T16:37:16.269Z,10.625916
2018-12-21T16:42:49.472Z,10.67627
2018-12-21T16:48:24.112Z,10.867615
2018-12-21T16:53:47.164Z,10.837402
2018-12-21T16:59:10.124Z,10.696411
2018-12-21T17:04:35.533Z,10.656128
2018-12-21T17:09:56.880Z,10.595703
2018-12-21T17:15:19.856Z,10.444641
2018-12-21T17:20:43.498Z,10.384216
2018-12-21T17:26:06.042Z,10.474854
2018-12-21T17:31:29.715Z,10.394287
2018-12-21T17:36:53.482Z,10.283508
2018-12-21T17:42:29.799Z,9.860535
2018-12-21T17:54:04.852Z,9.226074
2018-12-21T17:59:37.058Z,9.125366
2018-12-21T18:05:10.428Z,9.125366
2018-12-21T18:10:44.849Z,9.0448
2018-12-21T18:16:17.371Z,9.0448
2018-12-21T18:21:41.570Z,8.913879
2018-12-21T18:27:04.596Z,8.823242
2018-12-21T18:32:27.367Z,8.752747
2018-12-21T18:37:50.106Z,8.762817
2018-12-21T18:43:13.095Z,8.803101
2018-12-21T18:48:45.168Z,8.79303
2018-12-21T18:54:16.124Z,8.79303
2018-12-21T18:59:39.604Z,8.883667
2018-12-21T19:05:02.320Z,8.974304
2018-12-21T19:10:34.555Z,9.014587
2018-12-21T19:15:57.503Z,8.934021
2018-12-21T19:21:20.233Z,8.984375
2018-12-21T19:26:43.111Z,9.064941
2018-12-21T19:32:07.541Z,9.145508
2018-12-21T19:37:30.227Z,9.185791
2018-12-21T19:42:52.885Z,9.216003
2018-12-21T19:48:26.390Z,9.216003
2018-12-21T19:54:00.476Z,9.266357
2018-12-21T20:05:33.165Z,9.528198
2018-12-21T20:11:06.155Z,9.669189
2018-12-21T20:16:29.654Z,9.709473
2018-12-21T20:22:01.193Z,9.497986
2018-12-21T20:27:34.289Z,9.588623
2018-12-21T20:32:56.916Z,9.528198
2018-12-21T20:38:21.417Z,9.397278
2018-12-21T20:43:51.642Z,9.226074
2018-12-21T20:49:15.226Z,9.346924
2018-12-21T20:54:46.723Z,9.226074
2018-12-21T21:00:18.891Z,9.226074
2018-12-21T21:05:44.027Z,9.29657
2018-12-21T21:11:05.103Z,9.216003
2018-12-21T21:16:28.272Z,9.195862
2018-12-21T21:22:00.193Z,9.195862
2018-12-21T21:27:30.304Z,9.195862
2018-12-21T21:32:46.639Z,9.216003
2018-12-21T21:38:18.648Z,9.226074
2018-12-21T21:43:41.791Z,9.0448
2018-12-21T21:49:04.865Z,9.095154
2018-12-21T21:54:36.959Z,9.064941
2018-12-21T21:59:59.956Z,9.034729
2018-12-21T22:05:22.617Z,8.964233
2018-12-21T22:10:45.943Z,8.964233
2018-12-21T22:16:09.756Z,8.913879
2018-12-21T22:21:33.395Z,8.762817
2018-12-21T22:26:56.282Z,8.762817
2018-12-21T22:32:19.006Z,8.652039
2018-12-21T22:37:52.433Z,8.611755
2018-12-21T22:43:15.317Z,8.339844
2018-12-21T22:48:38.001Z,8.067932
2018-12-21T22:54:00.763Z,7.836304
2018-12-21T22:59:35.679Z,7.725525
2018-12-21T23:05:15.491Z,7.6651
2018-12-21T23:10:56.941Z,7.634888
2018-12-21T23:16:31.845Z,7.54425
2018-12-21T23:21:54.742Z,7.524109
2018-12-21T23:27:17.405Z,7.453613
2018-12-21T23:32:40.065Z,7.483826
2018-12-21T23:38:02.897Z,7.503967
2018-12-21T23:43:25.664Z,7.624817
2018-12-21T23:48:48.570Z,7.54425
2018-12-21T23:54:11.381Z,7.54425
2018-12-21T23:59:34.337Z,7.483826
